KMMI/MMI METAR and TAF weather

Enter ICAO airport designator
Station Type Date Time Source
KMMI METAR 2018/12/13 22:15 UTC NOAA

KMMI 132215Z AUTO 00000KT 10SM CLR 13/03 A3017 RMK A01


Station Type Date Time Source
KMMI Decoded METAR 2018/12/13 22:15 UTC NOAA

Station name not available
Dec 13, 2018 - 05:15 PM EST / 2018.12.13 2215 UTC
Wind: Calm:0
Visibility: 10 mile(s):0
Sky conditions: clear
Temperature: 55 F (13 C)
Dew Point: 37 F (3 C)
Relative Humidity: 50%
Pressure (altimeter): 30.17 in. Hg (1021 hPa)
ob: KMMI 132215Z AUTO 00000KT 10SM CLR 13/03 A3017 RMK A01
cycle: 22

Station Type Date Time Source
KMMI TAF UTC NOAA

Error!


Example: see airport list